sensor_id;sensor_type;location;lat;lon;timestamp;temperature;humidity
16116;DHT22;8162;47.104;15.432;2022-08-30T00:00:07;18.80;91.20
16116;DHT22;8162;47.104;15.432;2022-08-30T00:02:52;18.80;91.30
16116;DHT22;8162;47.104;15.432;2022-08-30T00:05:17;18.70;91.30
16116;DHT22;8162;47.104;15.432;2022-08-30T00:07:43;18.70;91.30
16116;DHT22;8162;47.104;15.432;2022-08-30T00:10:09;18.70;91.20
16116;DHT22;8162;47.104;15.432;2022-08-30T00:12:35;18.70;91.50
16116;DHT22;8162;47.104;15.432;2022-08-30T00:15:02;18.70;91.40
16116;DHT22;8162;47.104;15.432;2022-08-30T00:17:28;18.70;91.50
16116;DHT22;8162;47.104;15.432;2022-08-30T00:19:54;18.70;91.40
16116;DHT22;8162;47.104;15.432;2022-08-30T00:22:20;18.70;91.20
16116;DHT22;8162;47.104;15.432;2022-08-30T00:24:46;18.70;91.20
16116;DHT22;8162;47.104;15.432;2022-08-30T00:27:12;18.60;91.20
16116;DHT22;8162;47.104;15.432;2022-08-30T00:29:38;18.60;91.00
16116;DHT22;8162;47.104;15.432;2022-08-30T00:32:04;18.60;91.40
16116;DHT22;8162;47.104;15.432;2022-08-30T00:34:29;18.60;91.40
16116;DHT22;8162;47.104;15.432;2022-08-30T00:36:56;18.60;91.40
16116;DHT22;8162;47.104;15.432;2022-08-30T00:39:23;18.60;91.30
16116;DHT22;8162;47.104;15.432;2022-08-30T00:41:49;18.60;91.40
16116;DHT22;8162;47.104;15.432;2022-08-30T00:44:15;18.60;91.40
16116;DHT22;8162;47.104;15.432;2022-08-30T00:46:41;18.60;91.40
16116;DHT22;8162;47.104;15.432;2022-08-30T00:49:07;18.60;91.40
16116;DHT22;8162;47.104;15.432;2022-08-30T00:51:34;18.60;91.30
16116;DHT22;8162;47.104;15.432;2022-08-30T00:54:00;18.60;91.40
16116;DHT22;8162;47.104;15.432;2022-08-30T00:56:27;18.60;91.40
16116;DHT22;8162;47.104;15.432;2022-08-30T00:58:56;18.50;91.40
16116;DHT22;8162;47.104;15.432;2022-08-30T01:01:23;18.50;91.40
16116;DHT22;8162;47.104;15.432;2022-08-30T01:03:50;18.50;91.30
16116;DHT22;8162;47.104;15.432;2022-08-30T01:06:16;18.50;91.30
16116;DHT22;8162;47.104;15.432;2022-08-30T01:08:43;18.50;91.30
16116;DHT22;8162;47.104;15.432;2022-08-30T01:11:10;18.50;91.30
16116;DHT22;8162;47.104;15.432;2022-08-30T01:13:37;18.50;91.30
16116;DHT22;8162;47.104;15.432;2022-08-30T01:16:03;18.50;91.30
16116;DHT22;8162;47.104;15.432;2022-08-30T01:18:29;18.50;91.20
16116;DHT22;8162;47.104;15.432;2022-08-30T01:23:44;18.50;91.40
16116;DHT22;8162;47.104;15.432;2022-08-30T01:26:10;18.40;91.30
16116;DHT22;8162;47.104;15.432;2022-08-30T01:28:38;18.40;91.30
16116;DHT22;8162;47.104;15.432;2022-08-30T01:31:04;18.40;91.00
16116;DHT22;8162;47.104;15.432;2022-08-30T01:33:30;18.40;91.30
16116;DHT22;8162;47.104;15.432;2022-08-30T01:36:02;18.40;91.50
16116;DHT22;8162;47.104;15.432;2022-08-30T01:38:50;18.40;91.30
16116;DHT22;8162;47.104;15.432;2022-08-30T01:41:31;18.40;91.20
16116;DHT22;8162;47.104;15.432;2022-08-30T01:43:59;18.30;91.20
16116;DHT22;8162;47.104;15.432;2022-08-30T01:46:30;18.30;91.10
16116;DHT22;8162;47.104;15.432;2022-08-30T01:48:56;18.30;91.20
16116;DHT22;8162;47.104;15.432;2022-08-30T01:51:25;18.30;91.20
16116;DHT22;8162;47.104;15.432;2022-08-30T01:53:51;18.30;91.20
16116;DHT22;8162;47.104;15.432;2022-08-30T01:56:17;18.30;91.10
16116;DHT22;8162;47.104;15.432;2022-08-30T01:58:44;18.30;91.20
16116;DHT22;8162;47.104;15.432;2022-08-30T02:01:12;18.30;91.10
16116;DHT22;8162;47.104;15.432;2022-08-30T02:03:40;18.30;91.20
16116;DHT22;8162;47.104;15.432;2022-08-30T02:06:10;18.30;91.20
16116;DHT22;8162;47.104;15.432;2022-08-30T02:08:36;18.20;91.20
16116;DHT22;8162;47.104;15.432;2022-08-30T02:11:03;18.20;91.30
16116;DHT22;8162;47.104;15.432;2022-08-30T02:13:29;18.20;91.00
16116;DHT22;8162;47.104;15.432;2022-08-30T02:15:56;18.20;91.20
16116;DHT22;8162;47.104;15.432;2022-08-30T02:18:24;18.20;91.00
16116;DHT22;8162;47.104;15.432;2022-08-30T02:20:49;18.20;91.00
16116;DHT22;8162;47.104;15.432;2022-08-30T02:23:15;18.20;91.10
16116;DHT22;8162;47.104;15.432;2022-08-30T02:25:43;18.10;91.00
16116;DHT22;8162;47.104;15.432;2022-08-30T02:28:08;18.10;91.10
16116;DHT22;8162;47.104;15.432;2022-08-30T02:30:35;18.10;91.10
16116;DHT22;8162;47.104;15.432;2022-08-30T02:33:01;18.10;91.10
16116;DHT22;8162;47.104;15.432;2022-08-30T02:35:26;18.10;91.20
16116;DHT22;8162;47.104;15.432;2022-08-30T02:37:52;18.10;91.10
16116;DHT22;8162;47.104;15.432;2022-08-30T02:40:18;18.10;91.30
16116;DHT22;8162;47.104;15.432;2022-08-30T02:42:46;18.10;91.30
16116;DHT22;8162;47.104;15.432;2022-08-30T02:45:12;18.10;91.30
16116;DHT22;8162;47.104;15.432;2022-08-30T02:47:38;18.10;91.20
16116;DHT22;8162;47.104;15.432;2022-08-30T02:50:05;18.10;91.30
16116;DHT22;8162;47.104;15.432;2022-08-30T02:52:31;18.10;91.40
16116;DHT22;8162;47.104;15.432;2022-08-30T02:54:57;18.20;91.40
16116;DHT22;8162;47.104;15.432;2022-08-30T02:57:22;18.20;91.30
16116;DHT22;8162;47.104;15.432;2022-08-30T02:59:48;18.20;91.40
16116;DHT22;8162;47.104;15.432;2022-08-30T03:02:15;18.20;91.50
16116;DHT22;8162;47.104;15.432;2022-08-30T03:04:41;18.20;91.40
16116;DHT22;8162;47.104;15.432;2022-08-30T03:07:09;18.20;91.50
16116;DHT22;8162;47.104;15.432;2022-08-30T03:09:37;18.30;91.50
16116;DHT22;8162;47.104;15.432;2022-08-30T03:12:03;18.20;91.40
16116;DHT22;8162;47.104;15.432;2022-08-30T03:14:32;18.20;91.20
16116;DHT22;8162;47.104;15.432;2022-08-30T03:16:57;18.20;91.50
16116;DHT22;8162;47.104;15.432;2022-08-30T03:19:24;18.20;91.40
16116;DHT22;8162;47.104;15.432;2022-08-30T03:21:50;18.20;91.30
16116;DHT22;8162;47.104;15.432;2022-08-30T03:24:16;18.20;91.20
16116;DHT22;8162;47.104;15.432;2022-08-30T03:26:42;18.10;91.30
16116;DHT22;8162;47.104;15.432;2022-08-30T03:29:07;18.10;91.30
16116;DHT22;8162;47.104;15.432;2022-08-30T03:31:33;18.10;91.30
16116;DHT22;8162;47.104;15.432;2022-08-30T03:33:59;18.10;91.30
16116;DHT22;8162;47.104;15.432;2022-08-30T03:36:24;18.20;91.10
16116;DHT22;8162;47.104;15.432;2022-08-30T03:38:50;18.10;90.90
16116;DHT22;8162;47.104;15.432;2022-08-30T03:41:15;18.10;91.00
16116;DHT22;8162;47.104;15.432;2022-08-30T03:43:42;18.10;91.00
16116;DHT22;8162;47.104;15.432;2022-08-30T03:46:10;18.00;90.90
16116;DHT22;8162;47.104;15.432;2022-08-30T03:48:36;18.00;90.80
16116;DHT22;8162;47.104;15.432;2022-08-30T03:51:01;18.00;90.80
16116;DHT22;8162;47.104;15.432;2022-08-30T03:53:27;18.00;90.80
16116;DHT22;8162;47.104;15.432;2022-08-30T03:55:53;18.00;90.80
16116;DHT22;8162;47.104;15.432;2022-08-30T03:58:19;18.00;90.80
16116;DHT22;8162;47.104;15.432;2022-08-30T04:00:45;17.90;91.00
16116;DHT22;8162;47.104;15.432;2022-08-30T04:03:10;17.80;91.10
16116;DHT22;8162;47.104;15.432;2022-08-30T04:05:36;17.80;91.10
16116;DHT22;8162;47.104;15.432;2022-08-30T04:08:03;17.80;91.10
16116;DHT22;8162;47.104;15.432;2022-08-30T04:10:28;17.80;90.90
16116;DHT22;8162;47.104;15.432;2022-08-30T04:12:54;17.80;90.90
16116;DHT22;8162;47.104;15.432;2022-08-30T04:15:21;17.80;90.90
16116;DHT22;8162;47.104;15.432;2022-08-30T04:17:47;17.80;91.00
16116;DHT22;8162;47.104;15.432;2022-08-30T04:20:13;17.80;90.80
16116;DHT22;8162;47.104;15.432;2022-08-30T04:22:39;17.80;90.80
16116;DHT22;8162;47.104;15.432;2022-08-30T04:25:05;17.70;90.90
16116;DHT22;8162;47.104;15.432;2022-08-30T04:27:31;17.80;90.80
16116;DHT22;8162;47.104;15.432;2022-08-30T04:29:58;17.80;91.20
16116;DHT22;8162;47.104;15.432;2022-08-30T04:32:24;17.80;91.20
16116;DHT22;8162;47.104;15.432;2022-08-30T04:34:54;17.80;91.20
16116;DHT22;8162;47.104;15.432;2022-08-30T04:37:19;17.80;91.00
16116;DHT22;8162;47.104;15.432;2022-08-30T04:39:45;17.80;90.80
16116;DHT22;8162;47.104;15.432;2022-08-30T04:42:11;17.80;90.80
16116;DHT22;8162;47.104;15.432;2022-08-30T04:44:36;17.80;90.70
16116;DHT22;8162;47.104;15.432;2022-08-30T04:47:02;17.80;90.80
16116;DHT22;8162;47.104;15.432;2022-08-30T04:49:28;17.70;90.70
16116;DHT22;8162;47.104;15.432;2022-08-30T04:51:55;17.80;90.80
16116;DHT22;8162;47.104;15.432;2022-08-30T04:54:21;17.70;90.70
16116;DHT22;8162;47.104;15.432;2022-08-30T04:56:46;17.80;90.80
16116;DHT22;8162;47.104;15.432;2022-08-30T04:59:12;17.10;92.20
16116;DHT22;8162;47.104;15.432;2022-08-30T05:01:38;16.80;93.30
16116;DHT22;8162;47.104;15.432;2022-08-30T05:04:04;16.70;93.80
16116;DHT22;8162;47.104;15.432;2022-08-30T05:06:31;16.60;94.10
16116;DHT22;8162;47.104;15.432;2022-08-30T05:08:57;16.60;94.50
16116;DHT22;8162;47.104;15.432;2022-08-30T05:11:25;16.60;94.70
16116;DHT22;8162;47.104;15.432;2022-08-30T05:13:51;16.70;95.00
16116;DHT22;8162;47.104;15.432;2022-08-30T05:16:17;16.70;95.10
16116;DHT22;8162;47.104;15.432;2022-08-30T05:18:46;16.70;95.20
16116;DHT22;8162;47.104;15.432;2022-08-30T05:21:18;16.80;95.20
16116;DHT22;8162;47.104;15.432;2022-08-30T05:23:44;16.70;95.20
16116;DHT22;8162;47.104;15.432;2022-08-30T05:26:16;16.80;95.20
16116;DHT22;8162;47.104;15.432;2022-08-30T05:28:43;16.80;95.20
16116;DHT22;8162;47.104;15.432;2022-08-30T05:31:30;16.80;95.20
16116;DHT22;8162;47.104;15.432;2022-08-30T05:33:57;16.70;95.20
16116;DHT22;8162;47.104;15.432;2022-08-30T05:36:25;16.80;95.30
16116;DHT22;8162;47.104;15.432;2022-08-30T05:38:52;16.80;95.30
16116;DHT22;8162;47.104;15.432;2022-08-30T05:41:19;16.80;95.30
16116;DHT22;8162;47.104;15.432;2022-08-30T05:43:46;16.80;95.40
16116;DHT22;8162;47.104;15.432;2022-08-30T05:46:14;16.80;95.30
16116;DHT22;8162;47.104;15.432;2022-08-30T05:48:44;16.80;95.40
16116;DHT22;8162;47.104;15.432;2022-08-30T05:51:17;16.80;95.40
16116;DHT22;8162;47.104;15.432;2022-08-30T05:53:43;16.80;95.40
16116;DHT22;8162;47.104;15.432;2022-08-30T05:56:16;16.80;95.40
16116;DHT22;8162;47.104;15.432;2022-08-30T05:58:42;16.90;95.40
16116;DHT22;8162;47.104;15.432;2022-08-30T06:01:22;16.90;95.40
16116;DHT22;8162;47.104;15.432;2022-08-30T06:03:49;16.90;95.50
16116;DHT22;8162;47.104;15.432;2022-08-30T06:06:15;16.90;95.50
16116;DHT22;8162;47.104;15.432;2022-08-30T06:08:41;16.90;95.50
16116;DHT22;8162;47.104;15.432;2022-08-30T06:11:11;16.90;95.60
16116;DHT22;8162;47.104;15.432;2022-08-30T06:13:37;17.00;95.60
16116;DHT22;8162;47.104;15.432;2022-08-30T06:16:03;17.00;95.70
16116;DHT22;8162;47.104;15.432;2022-08-30T06:18:28;17.00;95.70
16116;DHT22;8162;47.104;15.432;2022-08-30T06:20:56;17.10;95.70
16116;DHT22;8162;47.104;15.432;2022-08-30T06:23:21;17.10;95.70
16116;DHT22;8162;47.104;15.432;2022-08-30T06:25:47;17.20;95.70
16116;DHT22;8162;47.104;15.432;2022-08-30T06:28:13;17.20;95.80
16116;DHT22;8162;47.104;15.432;2022-08-30T06:30:41;17.20;95.80
16116;DHT22;8162;47.104;15.432;2022-08-30T06:33:07;17.30;95.80
16116;DHT22;8162;47.104;15.432;2022-08-30T06:35:34;17.30;95.80
16116;DHT22;8162;47.104;15.432;2022-08-30T06:38:00;17.30;95.90
16116;DHT22;8162;47.104;15.432;2022-08-30T06:40:25;17.30;95.90
16116;DHT22;8162;47.104;15.432;2022-08-30T06:42:51;17.30;95.90
16116;DHT22;8162;47.104;15.432;2022-08-30T06:45:18;17.30;95.80
16116;DHT22;8162;47.104;15.432;2022-08-30T06:47:45;17.40;95.80
16116;DHT22;8162;47.104;15.432;2022-08-30T06:50:12;17.40;95.80
16116;DHT22;8162;47.104;15.432;2022-08-30T06:52:39;17.40;95.80
16116;DHT22;8162;47.104;15.432;2022-08-30T06:55:08;17.40;95.80
16116;DHT22;8162;47.104;15.432;2022-08-30T06:57:33;17.50;95.80
16116;DHT22;8162;47.104;15.432;2022-08-30T06:59:59;17.50;95.80
16116;DHT22;8162;47.104;15.432;2022-08-30T07:02:27;17.50;95.80
16116;DHT22;8162;47.104;15.432;2022-08-30T07:04:53;17.60;95.80
16116;DHT22;8162;47.104;15.432;2022-08-30T07:07:18;17.60;95.90
16116;DHT22;8162;47.104;15.432;2022-08-30T07:09:44;17.70;95.90
16116;DHT22;8162;47.104;15.432;2022-08-30T07:12:11;17.70;95.80
16116;DHT22;8162;47.104;15.432;2022-08-30T07:14:38;17.70;95.90
16116;DHT22;8162;47.104;15.432;2022-08-30T07:17:05;17.70;95.90
16116;DHT22;8162;47.104;15.432;2022-08-30T07:19:50;17.80;95.90
16116;DHT22;8162;47.104;15.432;2022-08-30T07:22:16;17.70;95.80
16116;DHT22;8162;47.104;15.432;2022-08-30T07:24:42;17.80;95.90
16116;DHT22;8162;47.104;15.432;2022-08-30T07:27:08;17.80;95.90
16116;DHT22;8162;47.104;15.432;2022-08-30T07:29:33;17.80;95.90
16116;DHT22;8162;47.104;15.432;2022-08-30T07:31:59;17.80;95.90
16116;DHT22;8162;47.104;15.432;2022-08-30T07:34:25;17.80;95.90
16116;DHT22;8162;47.104;15.432;2022-08-30T07:36:51;17.90;95.90
16116;DHT22;8162;47.104;15.432;2022-08-30T07:39:17;17.90;96.00
16116;DHT22;8162;47.104;15.432;2022-08-30T07:41:43;18.00;96.00
16116;DHT22;8162;47.104;15.432;2022-08-30T07:44:09;18.00;96.10
16116;DHT22;8162;47.104;15.432;2022-08-30T07:46:37;18.10;96.10
16116;DHT22;8162;47.104;15.432;2022-08-30T07:49:03;18.10;96.10
16116;DHT22;8162;47.104;15.432;2022-08-30T07:51:29;18.20;96.20
16116;DHT22;8162;47.104;15.432;2022-08-30T07:53:56;18.20;96.20
16116;DHT22;8162;47.104;15.432;2022-08-30T07:56:23;18.30;96.10
16116;DHT22;8162;47.104;15.432;2022-08-30T07:58:49;18.30;95.80
16116;DHT22;8162;47.104;15.432;2022-08-30T08:01:15;18.40;96.00
16116;DHT22;8162;47.104;15.432;2022-08-30T08:03:42;18.50;95.90
16116;DHT22;8162;47.104;15.432;2022-08-30T08:06:09;18.60;94.70
16116;DHT22;8162;47.104;15.432;2022-08-30T08:08:37;18.70;93.60
16116;DHT22;8162;47.104;15.432;2022-08-30T08:11:13;18.80;93.40
16116;DHT22;8162;47.104;15.432;2022-08-30T08:13:40;18.80;93.90
16116;DHT22;8162;47.104;15.432;2022-08-30T08:16:06;18.90;92.10
16116;DHT22;8162;47.104;15.432;2022-08-30T08:18:32;19.00;93.30
16116;DHT22;8162;47.104;15.432;2022-08-30T08:20:59;19.00;93.80
16116;DHT22;8162;47.104;15.432;2022-08-30T08:23:25;19.00;94.20
16116;DHT22;8162;47.104;15.432;2022-08-30T08:25:51;19.00;94.40
16116;DHT22;8162;47.104;15.432;2022-08-30T08:28:16;19.00;93.50
16116;DHT22;8162;47.104;15.432;2022-08-30T08:30:43;19.00;93.40
16116;DHT22;8162;47.104;15.432;2022-08-30T08:33:08;19.00;92.50
16116;DHT22;8162;47.104;15.432;2022-08-30T08:35:35;18.90;92.50
16116;DHT22;8162;47.104;15.432;2022-08-30T08:38:01;18.90;92.60
16116;DHT22;8162;47.104;15.432;2022-08-30T08:40:26;19.00;90.30
16116;DHT22;8162;47.104;15.432;2022-08-30T08:43:10;19.00;89.90
16116;DHT22;8162;47.104;15.432;2022-08-30T08:48:39;19.00;91.90
16116;DHT22;8162;47.104;15.432;2022-08-30T08:51:12;18.90;92.00
16116;DHT22;8162;47.104;15.432;2022-08-30T08:54:05;19.00;92.50
16116;DHT22;8162;47.104;15.432;2022-08-30T08:56:33;19.00;92.30
16116;DHT22;8162;47.104;15.432;2022-08-30T08:58:59;19.20;86.80
16116;DHT22;8162;47.104;15.432;2022-08-30T09:01:29;19.50;86.10
16116;DHT22;8162;47.104;15.432;2022-08-30T09:03:57;19.40;87.50
16116;DHT22;8162;47.104;15.432;2022-08-30T09:06:57;19.30;89.00
16116;DHT22;8162;47.104;15.432;2022-08-30T09:09:37;19.30;90.30
16116;DHT22;8162;47.104;15.432;2022-08-30T09:12:04;19.40;87.50
16116;DHT22;8162;47.104;15.432;2022-08-30T09:14:34;19.70;86.60
16116;DHT22;8162;47.104;15.432;2022-08-30T09:17:11;19.80;87.50
16116;DHT22;8162;47.104;15.432;2022-08-30T09:19:44;19.90;85.60
16116;DHT22;8162;47.104;15.432;2022-08-30T09:24:45;20.00;85.30
16116;DHT22;8162;47.104;15.432;2022-08-30T09:27:19;20.20;84.80
16116;DHT22;8162;47.104;15.432;2022-08-30T09:32:27;20.10;86.30
16116;DHT22;8162;47.104;15.432;2022-08-30T09:34:53;20.40;82.90
16116;DHT22;8162;47.104;15.432;2022-08-30T09:40:29;20.30;84.80
16116;DHT22;8162;47.104;15.432;2022-08-30T09:45:34;20.20;85.50
16116;DHT22;8162;47.104;15.432;2022-08-30T09:48:26;20.10;84.90
16116;DHT22;8162;47.104;15.432;2022-08-30T09:53:34;20.30;83.60
16116;DHT22;8162;47.104;15.432;2022-08-30T09:56:25;20.50;81.90
16116;DHT22;8162;47.104;15.432;2022-08-30T10:01:45;20.30;83.90
16116;DHT22;8162;47.104;15.432;2022-08-30T10:04:23;20.50;83.30
16116;DHT22;8162;47.104;15.432;2022-08-30T10:06:59;20.40;85.00
16116;DHT22;8162;47.104;15.432;2022-08-30T10:14:50;20.30;87.40
16116;DHT22;8162;47.104;15.432;2022-08-30T10:20:28;20.30;86.40
16116;DHT22;8162;47.104;15.432;2022-08-30T10:25:50;21.00;81.10
16116;DHT22;8162;47.104;15.432;2022-08-30T10:28:55;21.00;83.40
16116;DHT22;8162;47.104;15.432;2022-08-30T10:31:30;20.90;84.30
16116;DHT22;8162;47.104;15.432;2022-08-30T10:34:05;21.00;84.00
16116;DHT22;8162;47.104;15.432;2022-08-30T10:36:45;20.90;84.20
16116;DHT22;8162;47.104;15.432;2022-08-30T10:39:17;21.00;85.90
16116;DHT22;8162;47.104;15.432;2022-08-30T10:42:21;21.00;85.30
16116;DHT22;8162;47.104;15.432;2022-08-30T10:45:00;21.10;85.80
16116;DHT22;8162;47.104;15.432;2022-08-30T10:50:13;21.10;84.40
16116;DHT22;8162;47.104;15.432;2022-08-30T10:52:43;21.20;84.80
16116;DHT22;8162;47.104;15.432;2022-08-30T10:55:32;21.60;83.40
16116;DHT22;8162;47.104;15.432;2022-08-30T10:58:05;21.70;85.00
16116;DHT22;8162;47.104;15.432;2022-08-30T11:14:16;22.30;80.80
16116;DHT22;8162;47.104;15.432;2022-08-30T11:16:46;22.60;76.20
16116;DHT22;8162;47.104;15.432;2022-08-30T11:21:44;22.50;78.50
16116;DHT22;8162;47.104;15.432;2022-08-30T11:24:21;22.50;77.70
16116;DHT22;8162;47.104;15.432;2022-08-30T11:31:52;23.00;79.90
16116;DHT22;8162;47.104;15.432;2022-08-30T11:39:55;23.30;76.70
16116;DHT22;8162;47.104;15.432;2022-08-30T11:42:27;23.30;76.80
16116;DHT22;8162;47.104;15.432;2022-08-30T11:47:53;23.50;75.40
16116;DHT22;8162;47.104;15.432;2022-08-30T11:53:14;23.70;75.70
16116;DHT22;8162;47.104;15.432;2022-08-30T11:56:14;23.70;77.90
16116;DHT22;8162;47.104;15.432;2022-08-30T12:04:41;24.50;67.50
16116;DHT22;8162;47.104;15.432;2022-08-30T12:06:45;24.80;70.20
16116;DHT22;8162;47.104;15.432;2022-08-30T12:12:07;24.90;69.10
16116;DHT22;8162;47.104;15.432;2022-08-30T12:14:50;25.00;68.60
16116;DHT22;8162;47.104;15.432;2022-08-30T12:17:19;25.30;68.80
16116;DHT22;8162;47.104;15.432;2022-08-30T12:20:15;25.20;69.20
16116;DHT22;8162;47.104;15.432;2022-08-30T12:22:42;25.40;71.80
16116;DHT22;8162;47.104;15.432;2022-08-30T12:25:33;25.60;68.50
16116;DHT22;8162;47.104;15.432;2022-08-30T12:28:11;25.90;62.60
16116;DHT22;8162;47.104;15.432;2022-08-30T12:30:37;26.30;69.50
16116;DHT22;8162;47.104;15.432;2022-08-30T12:33:04;26.80;63.70
16116;DHT22;8162;47.104;15.432;2022-08-30T12:35:31;27.00;63.70
16116;DHT22;8162;47.104;15.432;2022-08-30T12:38:04;27.20;64.50
16116;DHT22;8162;47.104;15.432;2022-08-30T12:40:31;27.50;58.50
16116;DHT22;8162;47.104;15.432;2022-08-30T12:43:02;27.80;60.30
16116;DHT22;8162;47.104;15.432;2022-08-30T12:45:43;28.00;57.00
16116;DHT22;8162;47.104;15.432;2022-08-30T12:48:14;28.10;58.70
16116;DHT22;8162;47.104;15.432;2022-08-30T12:50:57;28.40;58.30
16116;DHT22;8162;47.104;15.432;2022-08-30T12:53:30;28.80;52.90
16116;DHT22;8162;47.104;15.432;2022-08-30T12:56:11;29.00;53.50
16116;DHT22;8162;47.104;15.432;2022-08-30T12:58:49;29.20;52.20
16116;DHT22;8162;47.104;15.432;2022-08-30T13:01:32;29.60;55.20
16116;DHT22;8162;47.104;15.432;2022-08-30T13:04:19;30.00;52.40
16116;DHT22;8162;47.104;15.432;2022-08-30T13:06:49;30.30;51.00
16116;DHT22;8162;47.104;15.432;2022-08-30T13:09:41;30.50;52.70
16116;DHT22;8162;47.104;15.432;2022-08-30T13:12:23;30.80;50.10
16116;DHT22;8162;47.104;15.432;2022-08-30T13:14:49;31.00;50.10
16116;DHT22;8162;47.104;15.432;2022-08-30T13:19:55;31.00;52.40
16116;DHT22;8162;47.104;15.432;2022-08-30T13:23:04;31.20;49.20
16116;DHT22;8162;47.104;15.432;2022-08-30T13:25:31;31.70;53.90
16116;DHT22;8162;47.104;15.432;2022-08-30T13:27:56;31.90;53.40
16116;DHT22;8162;47.104;15.432;2022-08-30T13:30:23;31.60;47.00
16116;DHT22;8162;47.104;15.432;2022-08-30T13:32:49;31.60;47.50
16116;DHT22;8162;47.104;15.432;2022-08-30T13:35:16;31.70;46.70
16116;DHT22;8162;47.104;15.432;2022-08-30T13:37:42;31.70;45.90
16116;DHT22;8162;47.104;15.432;2022-08-30T13:40:12;31.70;46.00
16116;DHT22;8162;47.104;15.432;2022-08-30T13:42:38;31.70;46.10
16116;DHT22;8162;47.104;15.432;2022-08-30T13:45:11;31.90;48.50
16116;DHT22;8162;47.104;15.432;2022-08-30T13:47:37;31.40;46.00
16116;DHT22;8162;47.104;15.432;2022-08-30T13:50:04;30.80;48.40
16116;DHT22;8162;47.104;15.432;2022-08-30T13:52:29;30.00;48.00
16116;DHT22;8162;47.104;15.432;2022-08-30T13:54:56;29.60;50.90
16116;DHT22;8162;47.104;15.432;2022-08-30T13:57:24;29.50;53.10
16116;DHT22;8162;47.104;15.432;2022-08-30T13:59:50;29.60;52.70
16116;DHT22;8162;47.104;15.432;2022-08-30T14:02:16;29.90;53.60
16116;DHT22;8162;47.104;15.432;2022-08-30T14:04:41;30.00;51.30
16116;DHT22;8162;47.104;15.432;2022-08-30T14:07:07;29.90;53.00
16116;DHT22;8162;47.104;15.432;2022-08-30T14:09:33;29.20;51.20
16116;DHT22;8162;47.104;15.432;2022-08-30T14:11:59;28.90;52.00
16116;DHT22;8162;47.104;15.432;2022-08-30T14:14:25;28.60;55.90
16116;DHT22;8162;47.104;15.432;2022-08-30T14:16:50;28.40;57.20
16116;DHT22;8162;47.104;15.432;2022-08-30T14:19:17;28.20;57.70
16116;DHT22;8162;47.104;15.432;2022-08-30T14:21:46;28.00;56.30
16116;DHT22;8162;47.104;15.432;2022-08-30T14:24:12;27.70;57.60
16116;DHT22;8162;47.104;15.432;2022-08-30T14:26:48;27.50;59.40
16116;DHT22;8162;47.104;15.432;2022-08-30T14:29:20;27.30;60.20
16116;DHT22;8162;47.104;15.432;2022-08-30T14:31:47;27.30;60.30
16116;DHT22;8162;47.104;15.432;2022-08-30T14:34:13;27.20;60.50
16116;DHT22;8162;47.104;15.432;2022-08-30T14:36:42;27.20;60.30
16116;DHT22;8162;47.104;15.432;2022-08-30T14:39:10;27.30;59.70
16116;DHT22;8162;47.104;15.432;2022-08-30T14:41:42;27.20;60.70
16116;DHT22;8162;47.104;15.432;2022-08-30T14:44:08;27.10;60.20
16116;DHT22;8162;47.104;15.432;2022-08-30T14:46:34;26.90;61.40
16116;DHT22;8162;47.104;15.432;2022-08-30T14:49:00;26.80;61.50
16116;DHT22;8162;47.104;15.432;2022-08-30T14:51:26;26.70;62.30
16116;DHT22;8162;47.104;15.432;2022-08-30T14:53:52;26.60;61.70
16116;DHT22;8162;47.104;15.432;2022-08-30T14:56:19;26.50;63.60
16116;DHT22;8162;47.104;15.432;2022-08-30T14:58:51;26.40;63.10
16116;DHT22;8162;47.104;15.432;2022-08-30T15:01:17;26.30;64.50
16116;DHT22;8162;47.104;15.432;2022-08-30T15:03:44;26.30;65.70
16116;DHT22;8162;47.104;15.432;2022-08-30T15:06:10;26.30;62.70
16116;DHT22;8162;47.104;15.432;2022-08-30T15:08:36;26.30;62.90
16116;DHT22;8162;47.104;15.432;2022-08-30T15:11:08;26.20;60.60
16116;DHT22;8162;47.104;15.432;2022-08-30T15:13:34;26.20;63.20
16116;DHT22;8162;47.104;15.432;2022-08-30T15:16:01;26.20;65.60
16116;DHT22;8162;47.104;15.432;2022-08-30T15:18:26;26.20;64.20
16116;DHT22;8162;47.104;15.432;2022-08-30T15:20:52;26.20;64.70
16116;DHT22;8162;47.104;15.432;2022-08-30T15:23:18;26.30;65.00
16116;DHT22;8162;47.104;15.432;2022-08-30T15:25:44;26.30;63.40
16116;DHT22;8162;47.104;15.432;2022-08-30T15:28:09;26.30;64.60
16116;DHT22;8162;47.104;15.432;2022-08-30T15:30:35;26.20;62.90
16116;DHT22;8162;47.104;15.432;2022-08-30T15:33:01;26.10;63.10
16116;DHT22;8162;47.104;15.432;2022-08-30T15:35:27;26.00;64.30
16116;DHT22;8162;47.104;15.432;2022-08-30T15:37:53;25.90;65.50
16116;DHT22;8162;47.104;15.432;2022-08-30T15:40:18;25.80;66.00
16116;DHT22;8162;47.104;15.432;2022-08-30T15:42:44;25.70;67.00
16116;DHT22;8162;47.104;15.432;2022-08-30T15:45:10;25.60;66.30
16116;DHT22;8162;47.104;15.432;2022-08-30T15:47:36;25.60;66.50
16116;DHT22;8162;47.104;15.432;2022-08-30T15:50:04;25.50;66.50
16116;DHT22;8162;47.104;15.432;2022-08-30T15:52:31;25.30;65.90
16116;DHT22;8162;47.104;15.432;2022-08-30T15:54:57;25.30;66.70
16116;DHT22;8162;47.104;15.432;2022-08-30T15:57:23;25.20;67.20
16116;DHT22;8162;47.104;15.432;2022-08-30T15:59:49;25.20;67.10
16116;DHT22;8162;47.104;15.432;2022-08-30T16:02:15;25.10;67.50
16116;DHT22;8162;47.104;15.432;2022-08-30T16:04:41;25.10;67.60
16116;DHT22;8162;47.104;15.432;2022-08-30T16:07:07;25.00;67.40
16116;DHT22;8162;47.104;15.432;2022-08-30T16:09:34;25.00;68.20
16116;DHT22;8162;47.104;15.432;2022-08-30T16:12:02;25.00;69.90
16116;DHT22;8162;47.104;15.432;2022-08-30T16:14:28;25.00;69.80
16116;DHT22;8162;47.104;15.432;2022-08-30T16:16:54;25.00;68.90
16116;DHT22;8162;47.104;15.432;2022-08-30T16:19:20;25.00;68.80
16116;DHT22;8162;47.104;15.432;2022-08-30T16:21:45;25.00;65.40
16116;DHT22;8162;47.104;15.432;2022-08-30T16:24:12;25.00;68.10
16116;DHT22;8162;47.104;15.432;2022-08-30T16:26:38;25.00;67.20
16116;DHT22;8162;47.104;15.432;2022-08-30T16:29:06;25.00;68.20
16116;DHT22;8162;47.104;15.432;2022-08-30T16:31:32;25.00;68.50
16116;DHT22;8162;47.104;15.432;2022-08-30T16:33:59;25.00;67.80
16116;DHT22;8162;47.104;15.432;2022-08-30T16:36:26;25.00;68.60
16116;DHT22;8162;47.104;15.432;2022-08-30T16:38:53;24.90;68.40
16116;DHT22;8162;47.104;15.432;2022-08-30T16:41:19;24.80;69.20
16116;DHT22;8162;47.104;15.432;2022-08-30T16:43:45;24.80;68.90
16116;DHT22;8162;47.104;15.432;2022-08-30T16:46:13;24.70;69.30
16116;DHT22;8162;47.104;15.432;2022-08-30T16:48:40;24.60;68.90
16116;DHT22;8162;47.104;15.432;2022-08-30T16:51:08;24.50;69.70
16116;DHT22;8162;47.104;15.432;2022-08-30T16:53:35;24.40;69.70
16116;DHT22;8162;47.104;15.432;2022-08-30T16:58:31;24.30;70.90
16116;DHT22;8162;47.104;15.432;2022-08-30T17:00:57;24.30;70.80